Time;durP1;ratioP1;P1;durP2;ratioP2;P2;SDS_P1;SDS_P2;PMS_P1;PMS_P2;Temp;Humidity;BMP_temperature;BMP_pressure;BME280_temperature;BME280_humidity;BME280_pressure;Samples;Min_cycle;Max_cycle;Signal;HPM_P1;HPM_P2
2022/05/01 00:00:56;;;;;;;25.40;16.80;;;9.30;76.80;;;;;;5064318;28;20204;-89
2022/05/01 00:03:34;;;;;;;25.90;18.13;;;9.20;76.90;;;;;;5058840;28;20185;-88
2022/05/01 00:06:05;;;;;;;23.40;15.57;;;9.30;76.50;;;;;;5078587;28;20162;-88
2022/05/01 00:08:32;;;;;;;24.52;16.15;;;9.30;76.40;;;;;;5047482;28;20181;-88
2022/05/01 00:10:57;;;;;;;24.45;16.33;;;9.30;76.10;;;;;;5079547;28;20205;-88
2022/05/01 00:13:25;;;;;;;21.60;16.65;;;9.20;76.10;;;;;;5058319;28;20454;-88
2022/05/01 00:15:51;;;;;;;26.90;16.30;;;9.20;76.30;;;;;;5057094;28;20176;-88
2022/05/01 00:18:18;;;;;;;28.83;17.20;;;9.20;76.80;;;;;;5057313;28;20223;-88
2022/05/01 00:20:43;;;;;;;24.33;17.80;;;9.20;76.80;;;;;;5057122;28;20275;-89
2022/05/01 00:23:10;;;;;;;23.37;16.60;;;9.10;77.20;;;;;;5056837;28;20625;-86
2022/05/01 00:25:40;;;;;;;23.60;16.45;;;9.10;77.40;;;;;;5075269;28;20192;-86
2022/05/01 00:28:06;;;;;;;23.40;17.70;;;9.10;77.50;;;;;;5077608;28;20172;-86
2022/05/01 00:30:31;;;;;;;24.15;17.88;;;9.10;77.70;;;;;;5076092;28;20216;-89
2022/05/01 00:38:35;;;;;;;23.13;17.55;;;8.90;79.10;;;;;;5052420;28;20645;-89
2022/05/01 00:41:01;;;;;;;33.83;18.73;;;8.90;79.10;;;;;;5058426;28;20643;-88
2022/05/01 00:43:27;;;;;;;27.55;18.77;;;8.90;79.10;;;;;;5052037;28;20246;-88
2022/05/01 00:45:53;;;;;;;24.57;17.27;;;8.80;79.30;;;;;;5059098;28;20641;-88
2022/05/01 00:48:19;;;;;;;25.42;17.52;;;8.80;79.50;;;;;;5070045;28;20180;-88
2022/05/01 00:50:45;;;;;;;23.93;17.53;;;8.80;79.70;;;;;;5066269;28;20269;-88
2022/05/01 00:53:11;;;;;;;29.65;17.05;;;8.80;79.70;;;;;;5069358;28;20177;-88
2022/05/01 00:55:38;;;;;;;25.30;17.10;;;8.80;79.80;;;;;;5063677;28;20200;-88
2022/05/01 00:58:06;;;;;;;25.90;18.80;;;8.80;79.80;;;;;;5049394;28;20442;-89
2022/05/01 01:00:34;;;;;;;29.17;17.50;;;8.80;79.60;;;;;;5063464;28;20672;-86
2022/05/01 01:03:00;;;;;;;27.48;19.65;;;8.80;79.70;;;;;;5080964;28;20203;-87
2022/05/01 01:05:26;;;;;;;24.50;17.63;;;8.80;79.80;;;;;;5080961;28;20636;-86
2022/05/01 01:07:52;;;;;;;25.70;17.77;;;8.80;79.90;;;;;;5062567;28;20187;-87
2022/05/01 01:10:19;;;;;;;24.13;18.77;;;8.80;79.80;;;;;;5062529;28;20470;-87
2022/05/01 01:12:54;;;;;;;27.52;19.13;;;8.80;79.80;;;;;;5062413;28;20183;-87
2022/05/01 01:15:24;;;;;;;33.78;20.88;;;8.70;80.00;;;;;;5063738;28;20172;-87
2022/05/01 01:17:54;;;;;;;31.15;19.48;;;8.70;80.10;;;;;;5062549;28;20172;-86
2022/05/01 01:20:25;;;;;;;29.30;20.13;;;8.70;80.30;;;;;;5081453;28;20279;-87
2022/05/01 01:22:54;;;;;;;26.45;18.25;;;8.70;80.50;;;;;;5063759;28;20200;-86
2022/05/01 01:25:26;;;;;;;28.60;20.95;;;8.70;80.60;;;;;;5064860;28;20527;-88
2022/05/01 01:27:57;;;;;;;31.38;20.48;;;8.70;80.60;;;;;;5049174;28;20177;-87
2022/05/01 01:33:07;;;;;;;25.95;18.75;;;8.60;80.50;;;;;;5085279;28;20248;-86
2022/05/01 01:35:36;;;;;;;33.93;22.10;;;8.60;80.70;;;;;;5082275;28;20191;-87
2022/05/01 01:38:02;;;;;;;30.55;22.08;;;8.60;80.80;;;;;;5065401;28;20221;-87
2022/05/01 01:40:38;;;;;;;35.35;21.77;;;8.60;81.00;;;;;;5081464;28;20230;-87
2022/05/01 01:43:05;;;;;;;32.58;21.02;;;8.60;81.00;;;;;;5081945;28;20182;-86
2022/05/01 01:45:31;;;;;;;35.65;22.00;;;8.50;81.10;;;;;;5070513;28;20196;-86
2022/05/01 01:48:10;;;;;;;34.27;23.23;;;8.50;81.20;;;;;;5062019;28;20188;-87
2022/05/01 01:51:03;;;;;;;33.15;21.95;;;8.50;81.30;;;;;;5078655;28;20506;-86
2022/05/01 01:53:30;;;;;;;35.67;21.73;;;8.50;81.40;;;;;;5082064;28;20543;-88
2022/05/01 01:55:59;;;;;;;33.00;22.38;;;8.50;81.30;;;;;;5082382;28;20694;-86
2022/05/01 01:58:29;;;;;;;34.42;21.40;;;8.50;81.40;;;;;;5081738;28;20215;-87
2022/05/01 02:00:55;;;;;;;32.50;22.58;;;8.50;81.30;;;;;;5081632;28;20766;-87
2022/05/01 02:03:22;;;;;;;33.33;21.88;;;8.50;81.40;;;;;;5081621;28;20184;-86
2022/05/01 02:05:49;;;;;;;31.45;20.58;;;8.50;81.30;;;;;;5082321;28;20655;-86
2022/05/01 02:08:15;;;;;;;30.00;20.95;;;8.50;80.70;;;;;;5081104;28;20265;-86
2022/05/01 02:10:41;;;;;;;30.67;21.75;;;8.50;80.40;;;;;;5078553;28;20211;-87
2022/05/01 02:13:07;;;;;;;33.92;22.60;;;8.40;80.80;;;;;;5078677;28;20188;-86
2022/05/01 02:15:35;;;;;;;32.22;21.02;;;8.40;81.00;;;;;;5078816;28;20221;-89
2022/05/01 02:18:02;;;;;;;36.63;23.00;;;8.40;81.20;;;;;;5078849;28;20547;-86
2022/05/01 02:21:33;;;;;;;36.63;22.35;;;8.40;80.90;;;;;;5078808;28;20295;-87
2022/05/01 02:23:19;;;;;;;30.80;20.58;;;8.40;80.50;;;;;;5096795;28;20199;-87
2022/05/01 02:25:45;;;;;;;34.70;23.33;;;8.30;80.80;;;;;;5079117;28;20210;-87
2022/05/01 02:28:10;;;;;;;37.80;24.50;;;8.30;80.90;;;;;;5083930;28;20180;-87
2022/05/01 02:30:37;;;;;;;29.53;20.60;;;8.30;81.00;;;;;;5105883;28;20287;-87
2022/05/01 02:33:06;;;;;;;36.13;23.65;;;8.30;81.10;;;;;;5080900;28;20406;-87
2022/05/01 02:35:32;;;;;;;34.63;21.08;;;8.30;81.20;;;;;;5082087;28;20184;-87
2022/05/01 02:37:59;;;;;;;29.33;19.88;;;8.30;81.20;;;;;;5084963;28;20172;-88
2022/05/01 02:40:25;;;;;;;38.60;23.50;;;8.30;81.30;;;;;;5087453;28;20218;-87
2022/05/01 02:43:04;;;;;;;41.97;24.85;;;8.30;81.30;;;;;;5105673;28;20191;-87
2022/05/01 02:45:29;;;;;;;37.35;25.77;;;8.20;81.30;;;;;;5079741;28;20198;-87
2022/05/01 02:47:55;;;;;;;37.70;23.73;;;8.20;81.40;;;;;;5061132;28;20182;-87
2022/05/01 02:50:22;;;;;;;38.05;24.63;;;8.20;81.60;;;;;;5062635;28;20204;-87
2022/05/01 02:52:51;;;;;;;39.00;25.13;;;8.20;81.70;;;;;;5081688;28;20184;-87
2022/05/01 02:55:17;;;;;;;35.55;23.15;;;8.20;81.70;;;;;;5066170;28;20179;-86
2022/05/01 02:57:43;;;;;;;38.00;24.70;;;8.20;81.80;;;;;;5067303;28;20184;-86
2022/05/01 03:00:16;;;;;;;37.80;24.33;;;8.10;81.70;;;;;;5077736;28;20189;-87
2022/05/01 03:02:46;;;;;;;32.17;22.42;;;8.10;81.80;;;;;;5058973;28;20177;-86
2022/05/01 03:05:12;;;;;;;37.17;23.85;;;8.10;81.80;;;;;;5058975;28;20199;-86
2022/05/01 03:07:38;;;;;;;37.03;23.50;;;8.10;81.80;;;;;;5092182;28;20180;-86
2022/05/01 03:10:05;;;;;;;31.47;22.87;;;8.10;81.80;;;;;;5040589;28;20200;-87
2022/05/01 03:12:30;;;;;;;37.97;23.20;;;8.10;81.80;;;;;;5057461;28;20407;-86
2022/05/01 03:14:57;;;;;;;38.80;24.70;;;8.10;82.60;;;;;;5057714;28;20651;-87
2022/05/01 03:17:23;;;;;;;37.03;22.70;;;8.10;82.00;;;;;;5075335;28;20165;-86
2022/05/01 03:22:33;;;;;;;34.38;23.20;;;8.00;82.00;;;;;;5075473;28;20755;-86
2022/05/01 03:24:59;;;;;;;39.03;25.20;;;8.00;81.80;;;;;;5057384;28;20189;-87
2022/05/01 03:27:24;;;;;;;37.20;23.83;;;7.90;81.70;;;;;;5057555;28;20419;-87
2022/05/01 03:32:51;;;;;;;38.85;23.98;;;7.90;81.70;;;;;;5060984;28;20213;-87
2022/05/01 03:35:18;;;;;;;37.83;22.77;;;7.80;81.70;;;;;;5069936;28;20191;-86
2022/05/01 03:37:44;;;;;;;35.10;23.90;;;7.80;82.00;;;;;;5091679;28;20169;-86
2022/05/01 03:40:15;;;;;;;46.15;25.02;;;7.90;82.20;;;;;;5107954;28;20236;-86
2022/05/01 03:42:42;;;;;;;43.60;26.00;;;7.80;82.00;;;;;;5063421;28;20173;-86
2022/05/01 03:45:09;;;;;;;38.88;25.25;;;7.80;82.10;;;;;;5057298;28;20181;-87
2022/05/01 03:47:35;;;;;;;36.65;24.77;;;7.80;82.30;;;;;;5075070;28;20255;-89
2022/05/01 03:50:01;;;;;;;43.30;25.63;;;7.80;82.50;;;;;;5057350;28;20181;-88
2022/05/01 03:52:26;;;;;;;37.67;25.90;;;7.80;82.30;;;;;;5056851;28;20208;-86
2022/05/01 03:54:52;;;;;;;36.33;24.77;;;7.80;82.20;;;;;;5056948;28;20415;-86
2022/05/01 03:57:37;;;;;;;36.53;24.20;;;7.70;82.00;;;;;;5057648;28;20411;-86
2022/05/01 04:00:10;;;;;;;36.22;25.45;;;7.70;81.90;;;;;;5075491;28;20192;-86
2022/05/01 04:02:42;;;;;;;40.00;24.73;;;7.70;81.80;;;;;;5056985;28;20176;-87
2022/05/01 04:05:09;;;;;;;38.60;24.83;;;7.70;81.90;;;;;;5056741;28;20629;-87
2022/05/01 04:07:35;;;;;;;36.05;25.35;;;7.70;82.10;;;;;;5074079;28;20181;-87
2022/05/01 04:10:00;;;;;;;38.90;25.57;;;7.70;82.50;;;;;;5056094;28;20175;-88
2022/05/01 04:12:26;;;;;;;42.90;26.10;;;7.70;82.60;;;;;;5077948;28;20537;-87
2022/05/01 04:14:52;;;;;;;42.37;24.07;;;7.70;82.60;;;;;;5076922;28;20172;-87
2022/05/01 04:17:18;;;;;;;42.20;25.00;;;7.70;82.60;;;;;;5076737;28;20198;-88
2022/05/01 04:19:43;;;;;;;37.67;23.60;;;7.70;82.60;;;;;;5095385;28;20174;-87
2022/05/01 04:22:09;;;;;;;45.20;26.10;;;7.70;82.40;;;;;;5077651;28;20426;-87
2022/05/01 04:24:35;;;;;;;41.07;24.43;;;7.70;82.10;;;;;;5096803;28;20196;-87
2022/05/01 04:27:02;;;;;;;38.03;23.70;;;7.60;82.10;;;;;;5097885;28;20171;-86
2022/05/01 04:29:37;;;;;;;36.33;24.33;;;7.70;82.20;;;;;;5096998;28;20168;-86
2022/05/01 04:32:08;;;;;;;37.60;22.95;;;7.70;82.00;;;;;;5078210;28;20717;-86
2022/05/01 04:34:34;;;;;;;39.38;23.98;;;7.70;82.00;;;;;;5076525;28;20656;-87
2022/05/01 04:37:01;;;;;;;40.77;24.43;;;7.70;81.80;;;;;;5095567;28;20257;-85
2022/05/01 04:39:27;;;;;;;37.70;24.90;;;7.70;81.80;;;;;;5076952;28;20934;-87
2022/05/01 04:41:53;;;;;;;37.40;20.98;;;7.70;81.70;;;;;;5076728;28;20207;-86
2022/05/01 04:44:19;;;;;;;34.97;23.77;;;7.80;81.80;;;;;;5094879;28;20183;-86
2022/05/01 04:46:50;;;;;;;36.37;24.60;;;7.80;81.70;;;;;;5076230;28;20183;-86
2022/05/01 04:49:18;;;;;;;39.33;23.85;;;7.90;81.50;;;;;;5093170;28;20785;-86
2022/05/01 04:51:45;;;;;;;42.05;25.80;;;7.90;81.60;;;;;;5075233;28;20212;-86
2022/05/01 04:54:11;;;;;;;43.55;25.10;;;8.00;81.70;;;;;;5059943;28;20176;-87
2022/05/01 04:59:21;;;;;;;37.33;22.90;;;8.00;81.40;;;;;;5080610;28;20195;-86
2022/05/01 05:01:47;;;;;;;41.03;26.17;;;8.10;81.40;;;;;;5077060;28;20203;-86
2022/05/01 05:04:13;;;;;;;35.60;22.40;;;8.20;81.30;;;;;;5058786;28;20234;-86
2022/05/01 05:06:39;;;;;;;40.15;24.42;;;8.20;81.20;;;;;;5061885;28;20430;-86
2022/05/01 05:11:49;;;;;;;34.40;23.17;;;8.50;80.60;;;;;;5076193;28;20215;-87
2022/05/01 05:14:14;;;;;;;36.40;24.43;;;8.60;79.80;;;;;;5088230;28;20548;-87
2022/05/01 05:16:41;;;;;;;35.27;23.30;;;8.70;79.60;;;;;;5101713;28;20176;-85
2022/05/01 05:19:06;;;;;;;36.47;23.65;;;8.70;79.60;;;;;;5086033;28;20176;-86
2022/05/01 05:21:33;;;;;;;36.22;23.77;;;8.80;79.50;;;;;;5083544;28;20208;-86
2022/05/01 05:23:59;;;;;;;38.03;24.30;;;8.90;79.10;;;;;;5072271;28;20291;-85
2022/05/01 05:26:25;;;;;;;35.57;23.67;;;9.10;78.70;;;;;;5076884;28;20175;-87
2022/05/01 05:28:50;;;;;;;43.43;25.63;;;9.20;78.40;;;;;;5076459;28;20183;-85
2022/05/01 05:31:22;;;;;;;40.70;24.03;;;9.30;77.90;;;;;;5094763;28;20200;-87
2022/05/01 05:33:48;;;;;;;37.28;23.95;;;9.50;77.90;;;;;;5077222;28;20168;-87
2022/05/01 05:36:56;;;;;;;31.67;23.60;;;9.90;77.40;;;;;;5093781;28;20261;-86
2022/05/01 05:39:22;;;;;;;33.95;23.02;;;10.60;76.30;;;;;;5076018;28;20208;-86
2022/05/01 05:41:48;;;;;;;33.57;24.10;;;11.40;73.00;;;;;;5053039;28;20235;-85
2022/05/01 05:44:18;;;;;;;30.13;21.35;;;12.00;70.00;;;;;;5069200;28;20824;-86
2022/05/01 05:46:44;;;;;;;33.90;21.77;;;12.50;68.00;;;;;;5061247;28;20187;-84
2022/05/01 05:49:09;;;;;;;34.10;24.17;;;12.90;66.10;;;;;;5055607;28;20188;-86
2022/05/01 05:51:35;;;;;;;32.13;21.80;;;13.10;64.70;;;;;;5078712;28;20817;-86
2022/05/01 05:54:01;;;;;;;27.57;21.70;;;13.20;64.20;;;;;;5058847;28;20661;-87
2022/05/01 05:56:27;;;;;;;33.63;23.50;;;13.40;63.00;;;;;;5045062;28;20198;-85
2022/05/01 05:58:52;;;;;;;30.73;22.20;;;13.00;63.40;;;;;;5058195;28;20770;-85
2022/05/01 06:01:24;;;;;;;31.70;24.00;;;12.70;64.20;;;;;;5094230;28;20222;-85
2022/05/01 06:03:50;;;;;;;35.90;24.98;;;12.80;64.70;;;;;;5080257;28;20179;-84
2022/05/01 06:06:17;;;;;;;33.45;24.08;;;13.30;63.80;;;;;;5098480;28;20587;-85
2022/05/01 06:08:44;;;;;;;27.20;20.60;;;13.10;63.50;;;;;;5069986;28;20196;-85
2022/05/01 06:11:10;;;;;;;23.48;20.20;;;13.10;63.70;;;;;;5055659;28;20205;-85
2022/05/01 06:13:36;;;;;;;29.63;21.43;;;13.50;63.20;;;;;;5059215;28;20176;-86
2022/05/01 06:16:01;;;;;;;29.98;22.17;;;13.60;62.60;;;;;;5059251;28;20415;-85
2022/05/01 06:18:27;;;;;;;28.53;22.60;;;13.30;62.40;;;;;;5078210;28;20227;-85
2022/05/01 06:20:53;;;;;;;31.63;22.53;;;12.90;62.70;;;;;;5061909;28;20447;-84
2022/05/01 06:23:20;;;;;;;27.27;21.55;;;12.80;63.30;;;;;;5064366;28;20193;-85
2022/05/01 06:25:49;;;;;;;28.70;20.98;;;12.70;63.90;;;;;;5069300;28;20181;-85
2022/05/01 06:28:16;;;;;;;28.95;21.50;;;12.90;64.10;;;;;;5106880;28;20180;-85
2022/05/01 06:30:44;;;;;;;30.05;21.80;;;13.10;63.90;;;;;;5065262;28;20216;-85
2022/05/01 06:33:13;;;;;;;25.25;17.35;;;13.20;63.20;;;;;;5061645;28;20595;-85
2022/05/01 06:35:40;;;;;;;26.63;18.83;;;13.90;61.10;;;;;;5079043;28;20185;-86
2022/05/01 06:38:08;;;;;;;26.10;19.10;;;14.30;59.20;;;;;;5061037;28;20164;-84
2022/05/01 06:40:37;;;;;;;24.75;19.33;;;14.50;59.20;;;;;;5063004;28;20196;-85
2022/05/01 06:43:03;;;;;;;23.25;17.52;;;14.70;57.30;;;;;;5073789;28;20184;-89
2022/05/01 06:45:29;;;;;;;21.27;16.57;;;14.70;56.90;;;;;;5059757;28;20180;-85
2022/05/01 06:47:55;;;;;;;19.77;15.07;;;14.60;57.00;;;;;;5056209;28;20423;-85
2022/05/01 06:50:21;;;;;;;28.00;20.20;;;14.40;57.20;;;;;;5055539;28;20197;-86
2022/05/01 06:52:47;;;;;;;20.90;16.58;;;14.40;57.60;;;;;;5064904;28;20485;-86
2022/05/01 06:55:16;;;;;;;25.07;19.00;;;14.00;58.20;;;;;;5073621;28;20543;-87
2022/05/01 06:57:41;;;;;;;23.13;15.90;;;14.20;58.30;;;;;;5062176;28;20519;-86
2022/05/01 07:00:08;;;;;;;30.23;16.80;;;14.20;58.50;;;;;;5058657;28;20224;-86
2022/05/01 07:06:15;;;;;;;31.25;16.98;;;14.70;56.90;;;;;;4972927;28;20245;-85
2022/05/01 07:08:40;;;;;;;18.70;14.97;;;14.30;57.10;;;;;;5046505;28;20191;-85
2022/05/01 07:11:06;;;;;;;19.60;14.80;;;14.00;58.00;;;;;;5042325;28;20557;-86
2022/05/01 07:13:32;;;;;;;17.30;12.60;;;14.40;57.10;;;;;;5052586;28;20173;-85
2022/05/01 07:15:57;;;;;;;21.10;14.33;;;14.50;55.90;;;;;;5073372;28;20185;-85
2022/05/01 07:18:23;;;;;;;24.27;16.50;;;14.00;57.10;;;;;;5057841;28;20189;-86
2022/05/01 07:20:49;;;;;;;17.50;13.80;;;13.70;58.60;;;;;;5073605;28;20954;-86
2022/05/01 07:23:14;;;;;;;19.63;14.97;;;13.40;59.50;;;;;;5076485;28;20570;-87
2022/05/01 07:25:52;;;;;;;18.43;15.00;;;13.20;60.50;;;;;;5071890;28;20180;-86
2022/05/01 07:28:17;;;;;;;19.30;15.85;;;13.10;61.20;;;;;;5078021;28;20662;-86
2022/05/01 07:30:43;;;;;;;17.57;14.33;;;12.80;61.90;;;;;;5059883;28;20219;-85
2022/05/01 07:33:09;;;;;;;19.93;14.23;;;12.70;62.80;;;;;;5073777;28;20211;-86
2022/05/01 07:35:35;;;;;;;15.97;12.53;;;12.60;63.10;;;;;;5076420;28;20441;-86
2022/05/01 07:38:01;;;;;;;17.40;13.50;;;12.90;62.20;;;;;;5057520;28;20555;-86
2022/05/01 07:40:27;;;;;;;16.95;11.80;;;12.90;62.50;;;;;;5061516;28;20254;-85
2022/05/01 07:42:53;;;;;;;19.07;13.47;;;13.00;61.70;;;;;;5059426;28;20176;-85
2022/05/01 07:45:19;;;;;;;13.63;11.93;;;13.20;61.20;;;;;;5058630;28;20419;-84
2022/05/01 07:47:45;;;;;;;13.47;10.83;;;12.80;61.50;;;;;;5076004;28;20192;-85
2022/05/01 07:50:30;;;;;;;16.17;11.40;;;12.90;61.10;;;;;;5059331;28;20434;-83
2022/05/01 07:52:56;;;;;;;16.10;11.68;;;13.20;60.40;;;;;;5062485;28;20641;-84
2022/05/01 07:55:22;;;;;;;13.77;10.93;;;13.20;59.90;;;;;;5065471;28;20282;-83
2022/05/01 07:57:48;;;;;;;12.67;9.97;;;12.90;60.90;;;;;;5085262;28;20422;-84
2022/05/01 08:00:14;;;;;;;15.07;10.50;;;13.00;61.70;;;;;;5069317;28;20668;-83
2022/05/01 08:05:27;;;;;;;11.70;10.15;;;12.80;61.40;;;;;;5045432;28;20216;-84
2022/05/01 08:07:54;;;;;;;11.00;8.85;;;12.60;61.70;;;;;;5042331;28;20177;-84
2022/05/01 08:10:21;;;;;;;10.13;9.00;;;12.40;61.80;;;;;;5078905;28;20216;-84
2022/05/01 08:12:47;;;;;;;16.95;9.93;;;12.50;62.10;;;;;;5043139;28;20184;-84
2022/05/01 08:15:18;;;;;;;11.18;9.43;;;12.50;61.90;;;;;;5075930;28;20204;-86
2022/05/01 08:17:48;;;;;;;13.57;10.90;;;12.30;62.10;;;;;;5075739;28;20222;-85
2022/05/01 08:23:03;;;;;;;12.77;10.85;;;12.60;62.20;;;;;;5074439;28;20227;-85
2022/05/01 08:25:29;;;;;;;13.25;9.88;;;13.00;60.50;;;;;;5057457;28;20187;-85
2022/05/01 08:27:55;;;;;;;14.57;9.00;;;12.70;60.70;;;;;;5057232;28;20492;-85
2022/05/01 08:30:21;;;;;;;9.30;8.40;;;12.60;61.30;;;;;;5056510;28;20195;-86
2022/05/01 08:32:46;;;;;;;14.73;9.60;;;13.00;60.60;;;;;;5074409;28;20204;-85
2022/05/01 08:35:12;;;;;;;13.07;8.40;;;13.00;60.50;;;;;;5074306;28;20407;-85
2022/05/01 08:37:39;;;;;;;13.23;9.88;;;12.90;61.40;;;;;;5056484;28;20173;-85
2022/05/01 08:40:07;;;;;;;17.77;11.02;;;13.10;61.20;;;;;;5056912;28;20596;-86
2022/05/01 08:42:36;;;;;;;12.73;10.57;;;13.40;60.00;;;;;;5030491;28;20556;-85
2022/05/01 08:45:03;;;;;;;14.43;9.98;;;13.30;59.00;;;;;;5054890;28;20181;-85
2022/05/01 08:48:02;;;;;;;13.00;10.10;;;13.40;58.70;;;;;;5037192;28;20181;-86
2022/05/01 08:50:28;;;;;;;10.25;9.10;;;13.30;58.70;;;;;;5061250;28;20200;-86
2022/05/01 08:52:58;;;;;;;16.07;10.87;;;13.50;58.10;;;;;;5075724;28;20172;-85
2022/05/01 08:55:24;;;;;;;14.68;10.10;;;13.30;59.10;;;;;;5074477;28;20533;-86
2022/05/01 08:57:52;;;;;;;12.33;10.80;;;13.20;59.30;;;;;;5075296;28;20269;-85
2022/05/01 09:00:18;;;;;;;12.60;10.55;;;13.40;57.90;;;;;;5055635;28;20506;-87
2022/05/01 09:02:44;;;;;;;12.70;10.48;;;13.20;58.30;;;;;;5040114;28;20185;-85
2022/05/01 09:05:11;;;;;;;16.00;10.83;;;13.30;58.00;;;;;;5056552;28;20624;-86
2022/05/01 09:07:38;;;;;;;13.60;10.18;;;13.20;58.60;;;;;;5058188;28;20941;-86
2022/05/01 09:10:05;;;;;;;15.77;10.35;;;13.10;59.40;;;;;;5057137;28;20730;-86
2022/05/01 09:12:50;;;;;;;10.38;8.77;;;13.10;60.10;;;;;;5069138;28;20227;-86
2022/05/01 09:15:36;;;;;;;7.68;6.47;;;13.40;58.70;;;;;;5069101;28;20794;-85
2022/05/01 09:18:10;;;;;;;10.18;8.45;;;13.80;54.10;;;;;;5072193;28;20173;-86
2022/05/01 09:20:39;;;;;;;9.30;7.25;;;14.00;52.80;;;;;;5078937;28;20229;-86
2022/05/01 09:23:06;;;;;;;10.32;7.13;;;14.00;53.10;;;;;;5059655;28;20211;-87
2022/05/01 09:26:02;;;;;;;8.90;7.32;;;14.20;52.60;;;;;;5059524;28;20177;-86
2022/05/01 09:28:28;;;;;;;8.00;6.30;;;14.40;51.70;;;;;;5043147;28;20252;-86
2022/05/01 09:30:54;;;;;;;9.75;8.45;;;14.40;52.00;;;;;;5076321;28;20224;-85
2022/05/01 09:33:20;;;;;;;11.40;8.50;;;14.70;50.90;;;;;;5057285;28;20205;-85
2022/05/01 09:35:46;;;;;;;11.55;9.27;;;14.70;50.70;;;;;;5060165;28;20200;-87
2022/05/01 09:38:24;;;;;;;9.15;7.40;;;14.70;51.20;;;;;;5060245;28;20230;-86
2022/05/01 09:40:52;;;;;;;8.68;7.85;;;14.50;52.20;;;;;;5067055;28;20207;-87
2022/05/01 09:43:43;;;;;;;9.48;5.15;;;14.60;52.00;;;;;;5078437;28;20795;-87
2022/05/01 09:46:12;;;;;;;8.23;7.32;;;14.90;54.40;;;;;;5061060;28;20180;-86
2022/05/01 09:48:39;;;;;;;8.05;6.10;;;15.10;53.10;;;;;;5057310;28;20212;-86
2022/05/01 09:51:19;;;;;;;9.40;7.47;;;15.30;53.50;;;;;;5070675;28;20207;-87
2022/05/01 09:53:46;;;;;;;8.82;7.55;;;15.60;52.00;;;;;;5077638;28;20180;-87
2022/05/01 09:56:13;;;;;;;11.30;7.82;;;15.70;48.30;;;;;;5091121;28;20200;-87
2022/05/01 09:58:40;;;;;;;10.65;7.47;;;15.80;44.60;;;;;;5060557;28;20597;-87
2022/05/01 10:01:17;;;;;;;7.53;6.82;;;15.50;44.90;;;;;;5078484;28;20591;-87
2022/05/01 10:03:47;;;;;;;6.72;5.93;;;15.50;45.60;;;;;;5078419;28;20157;-86
2022/05/01 10:06:14;;;;;;;7.03;6.18;;;15.70;44.70;;;;;;5063205;28;20291;-86
2022/05/01 10:08:43;;;;;;;10.35;7.60;;;15.90;43.40;;;;;;5082672;28;20192;-86
2022/05/01 10:11:10;;;;;;;7.50;6.22;;;15.90;42.90;;;;;;5083072;28;20227;-86
2022/05/01 10:13:36;;;;;;;6.88;5.63;;;15.80;43.70;;;;;;5067115;28;20177;-87
2022/05/01 10:16:07;;;;;;;7.32;6.20;;;15.90;47.60;;;;;;5085778;28;20172;-87
2022/05/01 10:18:33;;;;;;;8.90;7.28;;;16.20;45.40;;;;;;5067958;28;20194;-87
2022/05/01 10:20:59;;;;;;;11.00;8.73;;;16.20;43.30;;;;;;5070004;28;20200;-87
2022/05/01 10:23:26;;;;;;;6.73;6.13;;;16.30;42.80;;;;;;5043104;28;20247;-86
2022/05/01 10:25:59;;;;;;;8.45;7.07;;;16.10;42.40;;;;;;5063161;28;20994;-87
2022/05/01 10:28:25;;;;;;;10.45;7.60;;;16.00;43.40;;;;;;5062163;28;20181;-88
2022/05/01 10:34:18;;;;;;;7.32;5.43;;;15.90;42.80;;;;;;5076345;28;20219;-87
2022/05/01 10:37:10;;;;;;;6.85;5.93;;;16.10;44.50;;;;;;5081910;28;20153;-87
2022/05/01 10:39:40;;;;;;;8.23;6.43;;;16.30;46.00;;;;;;5061414;28;20176;-88
2022/05/01 10:42:08;;;;;;;7.90;6.20;;;16.40;46.80;;;;;;5059806;28;20258;-89
2022/05/01 10:44:41;;;;;;;6.00;5.40;;;16.30;45.80;;;;;;5076827;28;20173;-88
2022/05/01 10:47:13;;;;;;;8.65;6.53;;;16.50;46.00;;;;;;5058634;28;20187;-88
2022/05/01 10:49:46;;;;;;;7.10;6.40;;;16.60;43.80;;;;;;5058926;28;20229;-88
2022/05/01 10:52:18;;;;;;;9.07;6.10;;;16.60;44.40;;;;;;5033643;28;20576;-88
2022/05/01 10:55:00;;;;;;;9.13;7.25;;;16.30;50.10;;;;;;5038166;28;20641;-88
2022/05/01 10:57:26;;;;;;;7.10;5.97;;;16.50;46.50;;;;;;5040251;28;20180;-87
2022/05/01 11:00:12;;;;;;;7.23;6.40;;;16.50;46.20;;;;;;5021769;28;20181;-88
2022/05/01 11:02:49;;;;;;;9.52;7.03;;;16.50;47.30;;;;;;5056472;28;20786;-88
2022/05/01 11:05:41;;;;;;;8.98;6.30;;;16.10;45.00;;;;;;5038631;28;20236;-88
2022/05/01 11:08:28;;;;;;;8.23;7.43;;;15.80;45.00;;;;;;5039308;28;20173;-87
2022/05/01 11:10:57;;;;;;;8.40;6.93;;;15.80;43.70;;;;;;5039072;28;20217;-88
2022/05/01 11:13:37;;;;;;;8.23;7.22;;;16.20;42.40;;;;;;5057046;28;20551;-88
2022/05/01 11:16:04;;;;;;;10.50;7.38;;;15.90;43.80;;;;;;5056725;28;20158;-88
2022/05/01 11:18:53;;;;;;;8.70;7.70;;;15.40;44.50;;;;;;5038565;28;20177;-88
2022/05/01 11:21:22;;;;;;;8.40;7.28;;;15.10;45.20;;;;;;5022029;28;20205;-88
2022/05/01 11:24:10;;;;;;;9.25;5.90;;;15.20;45.70;;;;;;5037991;28;20198;-87
2022/05/01 11:26:36;;;;;;;10.45;6.90;;;15.20;48.20;;;;;;5037654;28;20170;-87
2022/05/01 11:29:17;;;;;;;8.48;6.32;;;15.30;46.10;;;;;;5037999;28;20181;-87
2022/05/01 11:31:49;;;;;;;7.72;6.85;;;15.30;45.30;;;;;;5037750;28;20212;-86
2022/05/01 11:34:24;;;;;;;8.15;6.45;;;15.40;45.20;;;;;;5037656;28;20184;-86
2022/05/01 11:37:07;;;;;;;6.68;5.40;;;15.50;45.90;;;;;;5037350;28;20169;-86
2022/05/01 11:39:51;;;;;;;6.43;5.22;;;15.80;46.40;;;;;;5020949;28;20578;-86
2022/05/01 11:42:46;;;;;;;6.05;5.55;;;16.20;45.10;;;;;;5072930;28;20213;-86
2022/05/01 11:45:12;;;;;;;8.80;5.97;;;16.40;44.80;;;;;;5077107;28;20275;-87
2022/05/01 11:47:40;;;;;;;8.13;5.93;;;16.70;42.00;;;;;;5096554;28;20202;-87
2022/05/01 11:50:07;;;;;;;9.93;7.63;;;17.00;40.40;;;;;;5059778;28;20232;-86
2022/05/01 11:52:37;;;;;;;10.60;8.05;;;17.00;39.20;;;;;;5057101;28;20212;-87
2022/05/01 11:55:08;;;;;;;7.85;7.15;;;16.80;39.40;;;;;;5075882;28;20172;-86
2022/05/01 12:03:15;;;;;;;6.78;5.93;;;16.80;39.20;;;;;;5089027;28;20191;-88
2022/05/01 12:06:00;;;;;;;6.88;5.72;;;16.80;41.00;;;;;;5065645;28;20184;-85
2022/05/01 12:08:25;;;;;;;6.90;5.97;;;16.90;43.20;;;;;;5058130;28;20180;-85
2022/05/01 12:10:51;;;;;;;9.40;7.27;;;17.10;46.30;;;;;;5057181;28;20639;-85
2022/05/01 12:13:22;;;;;;;7.90;6.67;;;17.30;40.20;;;;;;5057252;28;20214;-86
2022/05/01 12:15:49;;;;;;;10.27;6.47;;;17.00;39.50;;;;;;5057027;28;20425;-85
2022/05/01 12:18:15;;;;;;;7.95;7.15;;;16.60;41.00;;;;;;5040864;28;20214;-85
2022/05/01 12:20:41;;;;;;;11.30;7.50;;;16.50;41.00;;;;;;5057277;28;20285;-85
2022/05/01 12:23:20;;;;;;;9.98;7.85;;;16.20;41.70;;;;;;5056128;28;20868;-86
2022/05/01 12:25:50;;;;;;;9.18;7.57;;;16.10;42.40;;;;;;5057292;28;20200;-85
2022/05/01 12:28:18;;;;;;;9.88;8.65;;;16.00;42.20;;;;;;5075276;28;20222;-86
2022/05/01 12:30:45;;;;;;;8.80;8.00;;;16.00;42.50;;;;;;5074517;28;20200;-87
2022/05/01 12:33:24;;;;;;;10.93;7.15;;;16.10;41.90;;;;;;5056864;28;20256;-85
2022/05/01 12:35:59;;;;;;;6.93;5.75;;;16.10;43.20;;;;;;5056704;28;20222;-86
2022/05/01 12:38:30;;;;;;;7.15;6.45;;;16.60;39.80;;;;;;5074334;28;20697;-85
2022/05/01 12:44:00;;;;;;;9.75;6.70;;;16.90;37.50;;;;;;5055189;28;20167;-86
2022/05/01 12:46:30;;;;;;;6.70;5.90;;;16.80;38.40;;;;;;5036808;28;20187;-85
2022/05/01 12:48:58;;;;;;;7.93;5.80;;;16.20;39.80;;;;;;5037988;28;20700;-86
2022/05/01 12:51:35;;;;;;;7.47;6.60;;;16.30;41.10;;;;;;5039062;28;20213;-85
2022/05/01 12:54:09;;;;;;;10.20;6.57;;;16.10;41.90;;;;;;5037596;28;20189;-86
2022/05/01 12:56:36;;;;;;;6.72;6.13;;;16.10;41.70;;;;;;5039499;28;20177;-85
2022/05/01 12:59:30;;;;;;;9.82;6.57;;;16.30;40.40;;;;;;5056508;28;20161;-86
2022/05/01 13:01:58;;;;;;;6.75;5.50;;;16.60;39.40;;;;;;5057365;28;20204;-85
2022/05/01 13:04:27;;;;;;;14.25;6.53;;;16.60;41.10;;;;;;5040878;28;20560;-86
2022/05/01 13:06:53;;;;;;;7.40;6.05;;;16.80;43.10;;;;;;5046435;28;20188;-86
2022/05/01 13:09:20;;;;;;;7.40;6.18;;;16.90;39.90;;;;;;5044722;28;20235;-86
2022/05/01 13:11:59;;;;;;;7.43;5.55;;;16.90;37.70;;;;;;5069172;28;20291;-86
2022/05/01 13:14:30;;;;;;;6.80;6.00;;;17.20;37.20;;;;;;5041648;28;20173;-85
2022/05/01 13:17:18;;;;;;;8.13;5.80;;;17.10;37.30;;;;;;5040032;28;20177;-85
2022/05/01 13:19:51;;;;;;;8.90;6.30;;;17.10;38.50;;;;;;5057105;28;20177;-85
2022/05/01 13:22:19;;;;;;;7.55;6.18;;;17.20;37.50;;;;;;5058385;28;20200;-85
2022/05/01 13:28:07;;;;;;;7.05;5.97;;;16.70;39.20;;;;;;5058052;28;20176;-86
2022/05/01 13:30:33;;;;;;;8.00;5.93;;;16.80;39.40;;;;;;5039546;28;20607;-86
2022/05/01 13:33:06;;;;;;;5.63;5.03;;;16.80;38.80;;;;;;5038091;28;20510;-86